Time,TemperatureF,DewpointF,PressureIn,WindDirection,WindDirectionDegrees,WindSpeedMPH,WindSpeedGustMPH,Humidity,HourlyPrecipIn,Conditions,Clouds,dailyrainin,SoftwareType,DateUTC
2013-04-25 00:04:00,49.7,41.1,29.94,North,0,1.6,1.6,72,0.00,,,0.00,WUHU216HW,2013-04-25 07:04:00,
2013-04-25 00:09:00,49.5,40.9,29.94,NNW,338,1.6,1.8,72,0.00,,,0.00,WUHU216HW,2013-04-25 07:09:00,
2013-04-25 00:14:00,49.3,41.0,29.94,NNW,338,0.9,2.0,73,0.00,,,0.00,WUHU216HW,2013-04-25 07:14:00,
2013-04-25 00:19:00,49.5,41.1,29.94,North,0,1.1,2.0,73,0.00,,,0.00,WUHU216HW,2013-04-25 07:19:00,
2013-04-25 00:24:00,49.5,41.1,29.94,North,0,1.1,1.8,73,0.00,,,0.00,WUHU216HW,2013-04-25 07:24:00,
2013-04-25 00:29:00,49.3,40.7,29.94,North,0,1.1,1.8,72,0.00,,,0.00,WUHU216HW,2013-04-25 07:29:00,
2013-04-25 00:34:00,49.3,40.7,29.94,NNE,23,1.8,1.8,72,0.00,,,0.00,WUHU216HW,2013-04-25 07:34:00,
2013-04-25 00:39:00,49.3,40.7,29.94,NE,45,1.3,1.8,72,0.00,,,0.00,WUHU216HW,2013-04-25 07:39:00,
2013-04-25 00:44:00,49.3,40.7,29.94,NE,45,0.0,1.8,72,0.00,,,0.00,WUHU216HW,2013-04-25 07:44:00,
2013-04-25 00:49:00,49.1,40.8,29.94,East,90,1.1,1.8,73,0.00,,,0.00,WUHU216HW,2013-04-25 07:49:00,
2013-04-25 00:54:00,49.3,41.0,29.94,ENE,68,1.6,1.8,73,0.00,,,0.00,WUHU216HW,2013-04-25 07:54:00,
2013-04-25 00:59:00,49.3,41.3,29.94,ENE,68,0.7,1.8,74,0.00,,,0.00,WUHU216HW,2013-04-25 07:59:00,
2013-04-25 01:04:00,49.3,41.7,29.94,NNE,23,0.7,1.6,75,0.00,,,0.00,WUHU216HW,2013-04-25 08:04:00,
2013-04-25 01:09:00,49.1,41.1,29.94,SW,225,1.3,1.3,74,0.00,,,0.00,WUHU216HW,2013-04-25 08:09:00,
2013-04-25 01:14:00,49.1,41.5,29.94,SW,225,0.0,1.3,75,0.00,,,0.00,WUHU216HW,2013-04-25 08:14:00,
2013-04-25 01:19:00,49.0,41.3,29.94,WNW,293,0.0,1.3,75,0.00,,,0.00,WUHU216HW,2013-04-25 08:19:00,
2013-04-25 01:24:00,49.0,41.3,29.94,North,0,0.4,0.7,75,0.00,,,0.00,WUHU216HW,2013-04-25 08:24:00,
2013-04-25 01:29:00,49.0,41.7,29.94,NNW,338,0.0,0.7,76,0.00,,,0.00,WUHU216HW,2013-04-25 08:29:00,
2013-04-25 01:34:00,48.8,42.1,29.94,North,0,1.1,1.1,78,0.00,,,0.00,WUHU216HW,2013-04-25 08:34:00,
2013-04-25 01:39:00,48.6,42.3,29.94,ENE,68,1.3,1.3,79,0.00,,,0.00,WUHU216HW,2013-04-25 08:39:00,
2013-04-25 01:44:00,48.4,42.5,29.94,ENE,68,2.2,2.9,80,0.00,,,0.00,WUHU216HW,2013-04-25 08:44:00,
2013-04-25 01:49:00,48.4,42.5,29.94,East,90,1.8,2.9,80,0.00,,,0.00,WUHU216HW,2013-04-25 08:49:00,
2013-04-25 01:54:00,48.6,42.7,29.94,ENE,68,1.1,2.9,80,0.00,,,0.00,WUHU216HW,2013-04-25 08:54:00,
2013-04-25 01:59:00,48.6,42.7,29.94,East,90,1.1,2.0,80,0.00,,,0.00,WUHU216HW,2013-04-25 08:59:00,
2013-04-25 02:04:00,48.6,42.3,29.93,ESE,113,0.7,2.0,79,0.00,,,0.00,WUHU216HW,2013-04-25 09:04:00,
2013-04-25 02:09:00,48.6,42.3,29.94,ESE,113,1.1,1.3,79,0.00,,,0.00,WUHU216HW,2013-04-25 09:09:00,
2013-04-25 02:14:00,48.6,42.7,29.93,ESE,113,1.3,2.2,80,0.00,,,0.00,WUHU216HW,2013-04-25 09:14:00,
2013-04-25 02:19:00,48.4,42.5,29.93,ENE,68,1.1,2.2,80,0.00,,,0.00,WUHU216HW,2013-04-25 09:19:00,
2013-04-25 02:24:00,48.4,43.1,29.93,ENE,68,1.1,2.2,82,0.00,,,0.00,WUHU216HW,2013-04-25 09:24:00,
2013-04-25 02:29:00,48.2,42.3,29.93,ESE,113,0.4,1.8,80,0.00,,,0.00,WUHU216HW,2013-04-25 09:29:00,
2013-04-25 02:34:00,48.2,42.7,29.93,North,0,0.9,1.3,81,0.00,,,0.00,WUHU216HW,2013-04-25 09:34:00,
2013-04-25 02:39:00,47.9,41.9,29.93,North,0,0.0,0.9,80,0.00,,,0.00,WUHU216HW,2013-04-25 09:39:00,
2013-04-25 02:44:00,47.9,42.3,29.93,North,0,0.0,0.9,81,0.00,,,0.00,WUHU216HW,2013-04-25 09:44:00,
2013-04-25 02:49:00,47.7,42.8,29.93,North,0,1.3,1.3,83,0.00,,,0.00,WUHU216HW,2013-04-25 09:49:00,
2013-04-25 02:54:00,47.5,42.6,29.93,North,0,1.1,1.3,83,0.00,,,0.00,WUHU216HW,2013-04-25 09:54:00,
2013-04-25 02:59:00,47.5,42.6,29.93,NE,45,1.3,1.6,83,0.00,,,0.00,WUHU216HW,2013-04-25 09:59:00,
2013-04-25 03:04:00,47.5,42.6,29.93,ENE,68,1.1,1.6,83,0.00,,,0.00,WUHU216HW,2013-04-25 10:04:00,
2013-04-25 03:09:00,47.5,42.6,29.93,ENE,68,1.1,1.6,83,0.00,,,0.00,WUHU216HW,2013-04-25 10:09:00,
2013-04-25 03:14:00,47.5,42.6,29.93,East,90,1.8,1.8,83,0.00,,,0.00,WUHU216HW,2013-04-25 10:14:00,
2013-04-25 03:19:00,47.3,42.5,29.92,ESE,113,1.1,2.0,83,0.00,,,0.00,WUHU216HW,2013-04-25 10:19:00,
2013-04-25 03:24:00,47.3,42.1,29.92,East,90,1.3,2.0,82,0.00,,,0.00,WUHU216HW,2013-04-25 10:24:00,
2013-04-25 03:29:00,47.5,42.6,29.92,ENE,68,1.1,2.0,83,0.00,,,0.00,WUHU216HW,2013-04-25 10:29:00,
2013-04-25 03:34:00,47.2,42.3,29.92,ENE,68,1.1,2.0,83,0.00,,,0.00,WUHU216HW,2013-04-25 10:34:00,
2013-04-25 03:39:00,47.0,42.4,29.92,ENE,68,1.3,2.9,84,0.00,,,0.00,WUHU216HW,2013-04-25 10:39:00,
2013-04-25 03:44:00,47.0,42.4,29.92,East,90,1.8,2.9,84,0.00,,,0.00,WUHU216HW,2013-04-25 10:44:00,
2013-04-25 03:49:00,47.2,42.9,29.92,NE,45,1.8,2.2,85,0.00,,,0.00,WUHU216HW,2013-04-25 10:49:00,
2013-04-25 03:54:00,46.8,42.6,29.92,NNE,23,1.1,2.0,85,0.00,,,0.00,WUHU216HW,2013-04-25 10:54:00,
2013-04-25 03:59:00,46.8,42.6,29.92,East,90,2.5,2.5,85,0.00,,,0.00,WUHU216HW,2013-04-25 10:59:00,
2013-04-25 04:04:00,46.8,42.2,29.92,East,90,0.0,2.5,84,0.00,,,0.00,WUHU216HW,2013-04-25 11:04:00,
2013-04-25 04:09:00,46.8,42.6,29.92,ENE,68,1.6,2.5,85,0.00,,,0.00,WUHU216HW,2013-04-25 11:09:00,
2013-04-25 04:14:00,47.0,42.4,29.92,East,90,0.7,2.2,84,0.00,,,0.00,WUHU216HW,2013-04-25 11:14:00,
2013-04-25 04:19:00,47.0,42.4,29.92,ESE,113,1.1,2.0,84,0.00,,,0.00,WUHU216HW,2013-04-25 11:19:00,
2013-04-25 04:24:00,47.0,42.7,29.92,NE,45,1.8,1.8,85,0.00,,,0.00,WUHU216HW,2013-04-25 11:24:00,
2013-04-25 04:29:00,46.6,42.4,29.92,ENE,68,1.1,2.2,85,0.00,,,0.00,WUHU216HW,2013-04-25 11:29:00,
2013-04-25 04:34:00,46.6,42.4,29.91,ENE,68,0.4,2.2,85,0.00,,,0.00,WUHU216HW,2013-04-25 11:34:00,
2013-04-25 04:39:00,46.6,42.4,29.91,ENE,68,0.4,0.4,85,0.00,,,0.00,WUHU216HW,2013-04-25 11:39:00,
2013-04-25 04:44:00,46.8,42.6,29.92,ENE,68,0.4,0.4,85,0.00,,,0.00,WUHU216HW,2013-04-25 11:44:00,
2013-04-25 04:49:00,46.8,42.6,29.92,ENE,68,1.8,1.8,85,0.00,,,0.00,WUHU216HW,2013-04-25 11:49:00,
2013-04-25 04:55:00,46.8,42.6,29.92,ENE,68,1.8,1.8,85,0.00,,,0.00,WUHU216HW,2013-04-25 11:55:00,
2013-04-25 06:04:00,46.1,42.1,29.92,East,90,1.8,1.8,86,0.00,,,0.00,WUHU216HW,2013-04-25 13:04:00,
2013-04-25 06:09:00,45.9,41.9,29.92,ENE,68,0.9,1.8,86,0.00,,,0.00,WUHU216HW,2013-04-25 13:09:00,
2013-04-25 06:14:00,45.9,42.3,29.92,ENE,68,1.8,2.0,87,0.00,,,0.00,WUHU216HW,2013-04-25 13:14:00,
2013-04-25 06:19:00,46.1,42.5,29.92,East,90,1.3,2.5,87,0.00,,,0.00,WUHU216HW,2013-04-25 13:19:00,
2013-04-25 06:24:00,46.1,42.1,29.92,SE,135,1.8,2.5,86,0.00,,,0.00,WUHU216HW,2013-04-25 13:24:00,
2013-04-25 06:29:00,46.1,42.1,29.92,ENE,68,0.9,2.5,86,0.00,,,0.00,WUHU216HW,2013-04-25 13:29:00,
2013-04-25 06:34:00,46.3,42.3,29.92,East,90,0.0,2.5,86,0.00,,,0.00,WUHU216HW,2013-04-25 13:34:00,
2013-04-25 06:39:00,46.4,42.5,29.92,ENE,68,1.1,1.6,86,0.00,,,0.00,WUHU216HW,2013-04-25 13:39:00,
2013-04-25 06:44:00,46.4,42.5,29.92,ENE,68,1.8,2.0,86,0.00,,,0.00,WUHU216HW,2013-04-25 13:44:00,
2013-04-25 06:49:00,46.4,42.5,29.92,ENE,68,2.7,2.7,86,0.00,,,0.00,WUHU216HW,2013-04-25 13:49:00,
2013-04-25 06:54:00,46.4,42.9,29.93,ENE,68,3.1,3.4,87,0.00,,,0.00,WUHU216HW,2013-04-25 13:54:00,
2013-04-25 06:59:00,46.4,42.5,29.93,ENE,68,0.4,3.4,86,0.00,,,0.00,WUHU216HW,2013-04-25 13:59:00,
2013-04-25 07:04:00,46.8,42.8,29.93,East,90,0.0,3.1,86,0.00,,,0.00,WUHU216HW,2013-04-25 14:04:00,
2013-04-25 07:09:00,47.0,42.8,29.93,East,90,0.0,1.1,85,0.00,,,0.00,WUHU216HW,2013-04-25 14:09:00,
2013-04-25 07:14:00,47.2,42.9,29.94,East,90,0.0,0.0,85,0.00,,,0.00,WUHU216HW,2013-04-25 14:14:00,
2013-04-25 07:19:00,47.2,42.9,29.94,East,90,0.0,0.0,85,0.00,,,0.00,WUHU216HW,2013-04-25 14:19:00,
2013-04-25 07:24:00,47.2,42.9,29.94,East,90,0.0,0.0,85,0.00,,,0.00,WUHU216HW,2013-04-25 14:24:00,
2013-04-25 09:19:00,50.8,44.8,29.95,ESE,113,2.2,2.2,80,0.00,,,0.00,WUHU216HW,2013-04-25 16:19:00,
2013-04-25 09:24:00,50.8,44.8,29.95,ESE,113,2.2,2.2,80,0.00,,,0.00,WUHU216HW,2013-04-25 16:24:00,
2013-04-25 09:29:00,50.9,43.7,29.95,SE,135,2.2,2.2,76,0.00,,,0.00,WUHU216HW,2013-04-25 16:29:00,
2013-04-25 09:34:00,51.5,44.8,29.95,SE,135,1.6,2.2,78,0.00,,,0.00,WUHU216HW,2013-04-25 16:34:00,
2013-04-25 09:39:00,51.5,44.8,29.95,SE,135,1.6,2.2,78,0.00,,,0.00,WUHU216HW,2013-04-25 16:39:00,
2013-04-25 09:45:00,51.8,44.2,29.96,SE,135,2.2,2.2,75,0.00,,,0.00,WUHU216HW,2013-04-25 16:45:00,
2013-04-25 09:50:00,52.2,44.9,29.96,SE,135,1.6,2.2,76,0.00,,,0.00,WUHU216HW,2013-04-25 16:50:00,
2013-04-25 09:55:00,52.4,45.1,29.96,SE,135,2.2,2.5,76,0.00,,,0.00,WUHU216HW,2013-04-25 16:55:00,
2013-04-25 10:00:00,52.9,44.2,29.95,SSE,158,1.6,2.5,72,0.00,,,0.00,WUHU216HW,2013-04-25 17:00:00,
2013-04-25 10:05:00,53.1,44.3,29.95,SE,135,1.6,2.0,72,0.00,,,0.00,WUHU216HW,2013-04-25 17:05:00,
2013-04-25 10:10:00,53.3,44.5,29.95,SE,135,1.3,1.6,72,0.00,,,0.00,WUHU216HW,2013-04-25 17:10:00,
2013-04-25 10:15:00,53.5,45.0,29.96,SE,135,1.6,1.8,73,0.00,,,0.00,WUHU216HW,2013-04-25 17:15:00,
2013-04-25 10:20:00,53.8,45.4,29.96,SSE,158,1.8,1.8,73,0.00,,,0.00,WUHU216HW,2013-04-25 17:20:00,
2013-04-25 10:25:00,54.0,44.5,29.96,SSE,158,2.2,2.2,70,0.00,,,0.00,WUHU216HW,2013-04-25 17:25:00,
2013-04-25 10:30:00,54.2,45.7,29.96,South,180,1.3,2.2,73,0.00,,,0.00,WUHU216HW,2013-04-25 17:30:00,
2013-04-25 10:35:00,54.4,45.2,29.96,SSW,203,0.9,2.2,71,0.00,,,0.00,WUHU216HW,2013-04-25 17:35:00,
2013-04-25 10:40:00,54.4,45.2,29.96,SE,135,1.1,1.8,71,0.00,,,0.00,WUHU216HW,2013-04-25 17:40:00,
2013-04-25 10:45:00,54.4,43.7,29.96,SSE,158,1.6,2.2,67,0.00,,,0.00,WUHU216HW,2013-04-25 17:45:00,
2013-04-25 10:50:00,54.7,44.4,29.96,East,90,1.8,3.1,68,0.00,,,0.00,WUHU216HW,2013-04-25 17:50:00,
2013-04-25 10:55:00,55.3,44.9,29.96,East,90,1.8,3.1,68,0.00,,,0.00,WUHU216HW,2013-04-25 17:55:00,
2013-04-25 11:00:00,55.6,44.4,29.96,ENE,68,3.1,3.8,66,0.00,,,0.00,WUHU216HW,2013-04-25 18:00:00,
2013-04-25 11:05:00,56.0,45.5,29.96,East,90,2.2,4.0,68,0.00,,,0.00,WUHU216HW,2013-04-25 18:05:00,
2013-04-25 11:10:00,56.2,45.4,29.96,East,90,2.0,5.1,67,0.00,,,0.00,WUHU216HW,2013-04-25 18:10:00,
2013-04-25 11:15:00,56.3,44.7,29.97,East,90,2.9,5.1,65,0.00,,,0.00,WUHU216HW,2013-04-25 18:15:00,
2013-04-25 11:20:00,56.5,45.3,29.97,East,90,2.5,4.5,66,0.00,,,0.00,WUHU216HW,2013-04-25 18:20:00,
2013-04-25 11:25:00,56.7,45.0,29.96,East,90,2.7,4.5,65,0.00,,,0.00,WUHU216HW,2013-04-25 18:25:00,
2013-04-25 11:30:00,56.9,45.2,29.96,ESE,113,3.1,5.8,65,0.00,,,0.00,WUHU216HW,2013-04-25 18:30:00,
2013-04-25 11:35:00,57.2,45.9,29.96,ENE,68,3.4,5.8,66,0.00,,,0.00,WUHU216HW,2013-04-25 18:35:00,
2013-04-25 11:40:00,57.6,45.9,29.96,SE,135,1.8,4.9,65,0.00,,,0.00,WUHU216HW,2013-04-25 18:40:00,
2013-04-25 11:45:00,57.8,46.1,29.96,East,90,3.1,5.6,65,0.00,,,0.00,WUHU216HW,2013-04-25 18:45:00,
2013-04-25 11:50:00,58.0,45.8,29.97,NE,45,2.5,5.6,64,0.00,,,0.00,WUHU216HW,2013-04-25 18:50:00,
2013-04-25 11:55:00,58.1,46.4,29.97,East,90,1.1,4.0,65,0.00,,,0.00,WUHU216HW,2013-04-25 18:55:00,
2013-04-25 12:00:00,58.7,46.9,29.97,East,90,1.3,4.0,65,0.00,,,0.00,WUHU216HW,2013-04-25 19:00:00,
2013-04-25 12:05:00,59.0,46.5,29.96,SW,225,0.7,4.0,63,0.00,,,0.00,WUHU216HW,2013-04-25 19:05:00,
2013-04-25 12:10:00,59.4,47.2,29.97,ESE,113,4.3,4.3,64,0.00,,,0.00,WUHU216HW,2013-04-25 19:10:00,
2013-04-25 12:15:00,59.8,45.9,29.97,SW,225,2.5,4.3,60,0.00,,,0.00,WUHU216HW,2013-04-25 19:15:00,
2013-04-25 12:21:00,59.4,46.0,29.97,SSW,203,3.8,4.3,61,0.00,,,0.00,WUHU216HW,2013-04-25 19:21:00,
2013-04-25 12:25:00,59.2,46.2,29.97,SW,225,2.9,4.0,62,0.00,,,0.00,WUHU216HW,2013-04-25 19:25:00,
2013-04-25 12:31:00,59.2,46.2,29.97,SW,225,2.7,4.0,62,0.00,,,0.00,WUHU216HW,2013-04-25 19:31:00,
2013-04-25 12:36:00,59.2,46.2,29.98,SW,225,2.9,3.6,62,0.00,,,0.00,WUHU216HW,2013-04-25 19:36:00,
2013-04-25 12:41:00,59.4,46.4,29.97,SSW,203,1.8,3.6,62,0.00,,,0.00,WUHU216HW,2013-04-25 19:41:00,
2013-04-25 12:46:00,59.6,46.5,29.97,SSW,203,3.4,3.6,62,0.00,,,0.00,WUHU216HW,2013-04-25 19:46:00,
2013-04-25 12:51:00,59.8,46.7,29.98,SSW,203,3.4,4.9,62,0.00,,,0.00,WUHU216HW,2013-04-25 19:51:00,
2013-04-25 12:56:00,59.9,46.1,29.98,SSW,203,1.6,4.9,60,0.00,,,0.00,WUHU216HW,2013-04-25 19:56:00,
2013-04-25 13:01:00,59.9,46.5,29.98,SW,225,2.5,3.4,61,0.00,,,0.00,WUHU216HW,2013-04-25 20:01:00,
2013-04-25 13:06:00,59.9,46.9,29.98,SSW,203,2.5,3.4,62,0.00,,,0.00,WUHU216HW,2013-04-25 20:06:00,
2013-04-25 13:11:00,60.1,46.7,29.98,SW,225,1.6,3.4,61,0.00,,,0.00,WUHU216HW,2013-04-25 20:11:00,
2013-04-25 13:16:00,60.1,46.7,29.98,SSE,158,1.1,3.4,61,0.00,,,0.00,WUHU216HW,2013-04-25 20:16:00,
2013-04-25 13:21:00,60.7,47.6,29.98,SE,135,0.9,3.4,62,0.00,,,0.00,WUHU216HW,2013-04-25 20:21:00,
2013-04-25 13:26:00,61.2,48.2,29.98,South,180,2.0,3.6,62,0.00,,,0.00,WUHU216HW,2013-04-25 20:26:00,
2013-04-25 13:31:00,61.6,48.4,29.98,SE,135,2.0,3.6,62,0.00,,,0.00,WUHU216HW,2013-04-25 20:31:00,
2013-04-25 13:36:00,61.9,48.0,29.99,SSE,158,2.7,4.0,60,0.00,,,0.00,WUHU216HW,2013-04-25 20:36:00,
2013-04-25 13:41:00,62.1,47.6,29.98,SW,225,1.8,4.0,59,0.00,,,0.00,WUHU216HW,2013-04-25 20:41:00,
2013-04-25 13:46:00,62.3,47.8,29.98,SW,225,1.8,3.1,59,0.00,,,0.00,WUHU216HW,2013-04-25 20:46:00,
2013-04-25 13:51:00,62.3,47.8,29.98,SW,225,1.8,2.5,59,0.00,,,0.00,WUHU216HW,2013-04-25 20:51:00,
2013-04-25 13:56:00,62.1,48.2,29.99,SSW,203,1.1,2.5,60,0.00,,,0.00,WUHU216HW,2013-04-25 20:56:00,
2013-04-25 14:01:00,62.3,48.2,29.99,SSE,158,1.1,3.6,60,0.00,,,0.00,WUHU216HW,2013-04-25 21:01:00,
2013-04-25 14:06:00,62.6,48.6,29.99,SE,135,2.5,3.6,60,0.00,,,0.00,WUHU216HW,2013-04-25 21:06:00,
2013-04-25 14:11:00,63.0,49.0,29.99,SSE,158,2.9,3.1,60,0.00,,,0.00,WUHU216HW,2013-04-25 21:11:00,
2013-04-25 14:16:00,63.4,48.8,29.98,East,90,1.8,3.4,59,0.00,,,0.00,WUHU216HW,2013-04-25 21:16:00,
2013-04-25 14:21:00,63.4,48.2,29.98,ESE,113,1.8,3.4,58,0.00,,,0.00,WUHU216HW,2013-04-25 21:21:00,
2013-04-25 14:26:00,63.5,49.0,29.98,WSW,248,2.0,3.1,59,0.00,,,0.00,WUHU216HW,2013-04-25 21:26:00,
2013-04-25 14:31:00,63.5,48.0,29.98,SSW,203,2.2,2.7,57,0.00,,,0.00,WUHU216HW,2013-04-25 21:31:00,
2013-04-25 14:36:00,63.7,47.2,29.98,WSW,248,3.4,3.4,55,0.00,,,0.00,WUHU216HW,2013-04-25 21:36:00,
2013-04-25 14:41:00,64.1,47.0,29.98,SW,225,3.4,3.8,54,0.00,,,0.00,WUHU216HW,2013-04-25 21:41:00,
2013-04-25 14:46:00,63.9,46.8,29.98,SSW,203,3.4,3.8,54,0.00,,,0.00,WUHU216HW,2013-04-25 21:46:00,
2013-04-25 14:51:00,63.5,46.5,29.98,SSW,203,3.6,3.8,54,0.00,,,0.00,WUHU216HW,2013-04-25 21:51:00,
2013-04-25 14:56:00,63.2,47.2,29.98,SSW,203,3.4,4.7,56,0.00,,,0.00,WUHU216HW,2013-04-25 21:56:00,
2013-04-25 15:01:00,63.2,47.2,29.98,SSW,203,1.1,4.7,56,0.00,,,0.00,WUHU216HW,2013-04-25 22:01:00,
2013-04-25 15:06:00,63.4,47.4,29.98,SSW,203,2.5,3.6,56,0.00,,,0.00,WUHU216HW,2013-04-25 22:06:00,
2013-04-25 15:11:00,63.4,47.8,29.98,SW,225,2.7,3.8,57,0.00,,,0.00,WUHU216HW,2013-04-25 22:11:00,
2013-04-25 15:16:00,63.2,47.6,29.99,South,180,3.4,4.0,57,0.00,,,0.00,WUHU216HW,2013-04-25 22:16:00,
2013-04-25 15:21:00,63.2,46.6,29.98,SSW,203,3.8,4.0,55,0.00,,,0.00,WUHU216HW,2013-04-25 22:21:00,
2013-04-25 15:26:00,63.0,47.0,29.99,SW,225,3.8,4.0,56,0.00,,,0.00,WUHU216HW,2013-04-25 22:26:00,
2013-04-25 15:31:00,62.8,47.4,29.99,SSW,203,2.9,4.5,57,0.00,,,0.00,WUHU216HW,2013-04-25 22:31:00,
2013-04-25 15:37:00,63.2,47.2,29.98,SW,225,3.1,4.5,56,0.00,,,0.00,WUHU216HW,2013-04-25 22:37:00,
2013-04-25 15:41:00,63.7,47.2,29.98,SSW,203,3.4,3.8,55,0.00,,,0.00,WUHU216HW,2013-04-25 22:41:00,
2013-04-25 15:47:00,63.5,46.0,29.98,SSW,203,2.5,3.8,53,0.00,,,0.00,WUHU216HW,2013-04-25 22:47:00,
2013-04-25 15:52:00,63.4,46.8,29.98,SW,225,3.4,3.6,55,0.00,,,0.00,WUHU216HW,2013-04-25 22:52:00,
2013-04-25 15:57:00,63.5,47.0,29.98,SW,225,3.4,3.4,55,0.00,,,0.00,WUHU216HW,2013-04-25 22:57:00,
2013-04-25 16:02:00,63.7,47.6,29.98,WSW,248,2.7,4.0,56,0.00,,,0.00,WUHU216HW,2013-04-25 23:02:00,
2013-04-25 16:07:00,63.7,47.6,29.98,SSW,203,1.8,4.0,56,0.00,,,0.00,WUHU216HW,2013-04-25 23:07:00,
2013-04-25 16:12:00,63.4,47.4,29.98,SSW,203,1.8,3.1,56,0.00,,,0.00,WUHU216HW,2013-04-25 23:12:00,
2013-04-25 16:17:00,63.0,47.0,29.97,SSW,203,2.2,2.7,56,0.00,,,0.00,WUHU216HW,2013-04-25 23:17:00,
2013-04-25 16:22:00,62.6,46.6,29.98,SSW,203,2.2,2.7,56,0.00,,,0.00,WUHU216HW,2013-04-25 23:22:00,
2013-04-25 16:26:00,62.3,46.4,29.97,SSW,203,2.0,2.7,56,0.00,,,0.00,WUHU216HW,2013-04-25 23:26:00,
2013-04-25 16:31:00,62.3,46.4,29.97,SSW,203,2.0,2.7,56,0.00,,,0.00,WUHU216HW,2013-04-25 23:31:00,
2013-04-25 16:36:00,62.3,46.8,29.97,SW,225,1.8,2.7,57,0.00,,,0.00,WUHU216HW,2013-04-25 23:36:00,
2013-04-25 16:41:00,62.5,46.5,29.97,SSW,203,2.2,2.7,56,0.00,,,0.00,WUHU216HW,2013-04-25 23:41:00,
2013-04-25 16:46:00,62.6,46.6,29.97,SSW,203,1.8,2.5,56,0.00,,,0.00,WUHU216HW,2013-04-25 23:46:00,
2013-04-25 16:51:00,62.3,45.8,29.97,SW,225,1.3,2.5,55,0.00,,,0.00,WUHU216HW,2013-04-25 23:51:00,
2013-04-25 16:56:00,62.1,46.2,29.97,SW,225,1.1,2.5,56,0.00,,,0.00,WUHU216HW,2013-04-25 23:56:00,
2013-04-25 17:01:00,61.9,46.5,29.97,SSW,203,1.6,2.0,57,0.00,,,0.00,WUHU216HW,2013-04-26 00:01:00,
2013-04-25 17:06:00,62.3,47.4,29.97,SSW,203,1.3,2.0,58,0.00,,,0.00,WUHU216HW,2013-04-26 00:06:00,
2013-04-25 17:12:00,62.5,47.4,29.97,SSW,203,1.1,1.8,58,0.00,,,0.00,WUHU216HW,2013-04-26 00:12:00,
2013-04-25 17:17:00,62.6,47.2,29.97,SW,225,1.3,1.8,57,0.00,,,0.00,WUHU216HW,2013-04-26 00:17:00,
2013-04-25 17:21:00,62.6,47.6,29.98,WSW,248,2.5,3.4,58,0.00,,,0.00,WUHU216HW,2013-04-26 00:21:00,
2013-04-25 17:26:00,62.1,47.2,29.98,SSW,203,0.7,3.4,58,0.00,,,0.00,WUHU216HW,2013-04-26 00:26:00,
2013-04-25 17:31:00,61.6,47.2,29.98,WSW,248,0.7,3.4,59,0.00,,,0.00,WUHU216HW,2013-04-26 00:31:00,
2013-04-25 17:36:00,61.2,47.4,29.98,WSW,248,0.0,3.4,60,0.00,,,0.00,WUHU216HW,2013-04-26 00:36:00,
2013-04-25 17:41:00,61.0,47.5,29.98,SW,225,0.9,2.0,61,0.00,,,0.00,WUHU216HW,2013-04-26 00:41:00,
2013-04-25 17:47:00,61.0,47.5,29.98,SW,225,0.0,2.0,61,0.00,,,0.00,WUHU216HW,2013-04-26 00:47:00,
2013-04-25 17:51:00,61.0,47.5,29.98,SW,225,0.0,0.9,61,0.00,,,0.00,WUHU216HW,2013-04-26 00:51:00,
2013-04-25 17:56:00,61.0,47.5,29.98,SW,225,1.1,1.1,61,0.00,,,0.00,WUHU216HW,2013-04-26 00:56:00,
2013-04-25 18:01:00,60.7,47.3,29.98,WSW,248,0.2,2.5,61,0.00,,,0.00,WUHU216HW,2013-04-26 01:01:00,
2013-04-25 18:06:00,60.7,47.3,29.98,SW,225,1.8,2.5,61,0.00,,,0.00,WUHU216HW,2013-04-26 01:06:00,
2013-04-25 18:11:00,60.7,47.3,29.98,WSW,248,0.0,3.1,61,0.00,,,0.00,WUHU216HW,2013-04-26 01:11:00,
2013-04-25 18:16:00,60.5,47.1,29.98,WSW,248,0.0,3.1,61,0.00,,,0.00,WUHU216HW,2013-04-26 01:16:00,
2013-04-25 18:21:00,60.7,47.3,29.98,SW,225,1.3,1.6,61,0.00,,,0.00,WUHU216HW,2013-04-26 01:21:00,
2013-04-25 18:26:00,60.7,47.3,29.97,SSW,203,0.2,1.6,61,0.00,,,0.00,WUHU216HW,2013-04-26 01:26:00,
2013-04-25 18:31:00,60.7,47.3,29.97,SSW,203,1.8,1.8,61,0.00,,,0.00,WUHU216HW,2013-04-26 01:31:00,
2013-04-25 18:37:00,60.5,47.1,29.97,WSW,248,0.0,1.8,61,0.00,,,0.00,WUHU216HW,2013-04-26 01:37:00,
2013-04-25 18:42:00,60.3,47.3,29.97,WSW,248,0.0,1.8,62,0.00,,,0.00,WUHU216HW,2013-04-26 01:42:00,
2013-04-25 18:47:00,60.3,47.3,29.97,WSW,248,1.1,1.1,62,0.00,,,0.00,WUHU216HW,2013-04-26 01:47:00,
2013-04-25 18:52:00,60.5,47.4,29.97,WSW,248,0.7,1.6,62,0.00,,,0.00,WUHU216HW,2013-04-26 01:52:00,
2013-04-25 18:57:00,60.1,47.1,29.98,WSW,248,0.7,1.8,62,0.00,,,0.00,WUHU216HW,2013-04-26 01:57:00,
2013-04-25 19:02:00,59.9,46.9,29.98,WSW,248,0.0,1.8,62,0.00,,,0.00,WUHU216HW,2013-04-26 02:02:00,
2013-04-25 19:07:00,59.9,46.9,29.98,WSW,248,0.4,2.5,62,0.00,,,0.00,WUHU216HW,2013-04-26 02:07:00,
2013-04-25 19:12:00,59.9,46.9,29.98,WNW,293,0.4,2.5,62,0.00,,,0.00,WUHU216HW,2013-04-26 02:12:00,
2013-04-25 19:17:00,59.6,46.5,29.98,WSW,248,1.8,1.8,62,0.00,,,0.00,WUHU216HW,2013-04-26 02:17:00,
2013-04-25 19:22:00,59.4,46.8,29.98,WSW,248,1.3,2.5,63,0.00,,,0.00,WUHU216HW,2013-04-26 02:22:00,
2013-04-25 19:27:00,59.2,46.6,29.98,WSW,248,2.5,4.7,63,0.00,,,0.00,WUHU216HW,2013-04-26 02:27:00,
2013-04-25 19:32:00,58.7,46.5,29.98,NW,315,0.2,4.7,64,0.00,,,0.00,WUHU216HW,2013-04-26 02:32:00,
2013-04-25 19:37:00,58.1,46.0,29.98,WSW,248,1.3,2.5,64,0.00,,,0.00,WUHU216HW,2013-04-26 02:37:00,
2013-04-25 19:42:00,57.8,45.6,29.98,WSW,248,2.0,2.0,64,0.00,,,0.00,WUHU216HW,2013-04-26 02:42:00,
2013-04-25 19:47:00,57.4,45.7,29.98,WSW,248,0.4,2.0,65,0.00,,,0.00,WUHU216HW,2013-04-26 02:47:00,
2013-04-25 19:52:00,57.2,45.5,29.99,WSW,248,1.6,1.8,65,0.00,,,0.00,WUHU216HW,2013-04-26 02:52:00,
2013-04-25 19:57:00,57.2,45.5,29.99,WSW,248,0.4,1.8,65,0.00,,,0.00,WUHU216HW,2013-04-26 02:57:00,
2013-04-25 20:02:00,57.1,45.4,29.99,WSW,248,1.1,1.8,65,0.00,,,0.00,WUHU216HW,2013-04-26 03:02:00,
2013-04-25 20:07:00,56.9,45.2,29.99,WSW,248,0.4,1.8,65,0.00,,,0.00,WUHU216HW,2013-04-26 03:07:00,
2013-04-25 20:12:00,56.7,45.5,29.99,WSW,248,1.3,1.8,66,0.00,,,0.00,WUHU216HW,2013-04-26 03:12:00,
2013-04-25 20:17:00,56.5,45.3,29.99,WSW,248,0.0,1.3,66,0.00,,,0.00,WUHU216HW,2013-04-26 03:17:00,
2013-04-25 20:22:00,56.3,45.1,29.99,SW,225,0.0,1.3,66,0.00,,,0.00,WUHU216HW,2013-04-26 03:22:00,
2013-04-25 20:27:00,56.0,44.7,29.99,SSW,203,2.0,2.2,66,0.00,,,0.00,WUHU216HW,2013-04-26 03:27:00,
2013-04-25 20:32:00,55.8,44.6,30.00,SSW,203,1.1,2.2,66,0.00,,,0.00,WUHU216HW,2013-04-26 03:32:00,
2013-04-25 20:37:00,55.8,44.6,30.00,SW,225,0.9,2.0,66,0.00,,,0.00,WUHU216HW,2013-04-26 03:37:00,
2013-04-25 20:42:00,55.4,44.6,30.00,SW,225,0.0,2.0,67,0.00,,,0.00,WUHU216HW,2013-04-26 03:42:00,
2013-04-25 20:47:00,54.9,44.6,30.00,WSW,248,0.4,1.3,68,0.00,,,0.00,WUHU216HW,2013-04-26 03:47:00,
2013-04-25 20:52:00,54.4,44.5,30.00,NW,315,0.0,1.3,69,0.00,,,0.00,WUHU216HW,2013-04-26 03:52:00,
2013-04-25 20:57:00,54.0,44.5,30.00,NW,315,2.5,2.9,70,0.00,,,0.00,WUHU216HW,2013-04-26 03:57:00,
2013-04-25 21:01:00,54.0,44.5,30.00,NNW,338,0.4,2.9,70,0.00,,,0.00,WUHU216HW,2013-04-26 04:01:00,
2013-04-25 21:06:00,54.0,45.2,30.01,West,270,1.3,2.7,72,0.00,,,0.00,WUHU216HW,2013-04-26 04:06:00,
2013-04-25 21:11:00,53.8,45.0,30.01,West,270,1.1,2.9,72,0.00,,,0.00,WUHU216HW,2013-04-26 04:11:00,
2013-04-25 21:16:00,53.6,44.8,30.01,SSW,203,2.5,4.0,72,0.00,,,0.00,WUHU216HW,2013-04-26 04:16:00,
2013-04-25 21:21:00,54.0,45.6,30.01,WSW,248,0.4,4.0,73,0.00,,,0.00,WUHU216HW,2013-04-26 04:21:00,
2013-04-25 21:26:00,53.8,45.0,30.01,SW,225,0.0,2.7,72,0.00,,,0.00,WUHU216HW,2013-04-26 04:26:00,
2013-04-25 21:31:00,53.5,45.0,30.02,East,90,0.4,2.7,73,0.00,,,0.00,WUHU216HW,2013-04-26 04:31:00,
2013-04-25 21:36:00,53.1,44.6,30.02,North,0,1.6,1.8,73,0.00,,,0.00,WUHU216HW,2013-04-26 04:36:00,
2013-04-25 21:41:00,52.9,44.8,30.02,NNE,23,1.1,1.8,74,0.00,,,0.00,WUHU216HW,2013-04-26 04:41:00,
2013-04-25 21:46:00,52.9,44.6,30.02,WSW,248,0.0,2.9,73,0.00,,,0.00,WUHU216HW,2013-04-26 04:46:00,
2013-04-25 21:51:00,53.1,44.6,30.02,NNW,338,0.9,2.9,73,0.00,,,0.00,WUHU216HW,2013-04-26 04:51:00,
2013-04-25 21:56:00,52.9,44.8,30.02,WNW,293,0.4,2.5,74,0.00,,,0.00,WUHU216HW,2013-04-26 04:56:00,
2013-04-25 22:01:00,52.9,45.2,30.02,WNW,293,1.6,2.7,75,0.00,,,0.00,WUHU216HW,2013-04-26 05:01:00,
2013-04-25 22:06:00,52.7,45.0,30.02,NW,315,0.9,2.7,75,0.00,,,0.00,WUHU216HW,2013-04-26 05:06:00,
2013-04-25 22:12:00,52.6,45.2,30.02,NW,315,1.8,2.5,76,0.00,,,0.00,WUHU216HW,2013-04-26 05:12:00,
2013-04-25 22:17:00,52.4,45.1,30.02,West,270,0.9,2.5,76,0.00,,,0.00,WUHU216HW,2013-04-26 05:17:00,
2013-04-25 22:22:00,52.2,44.9,30.02,WSW,248,0.0,2.5,76,0.00,,,0.00,WUHU216HW,2013-04-26 05:22:00,
2013-04-25 22:27:00,52.2,44.9,30.02,NW,315,0.0,1.1,76,0.00,,,0.00,WUHU216HW,2013-04-26 05:27:00,
2013-04-25 22:32:00,51.8,44.9,30.02,NNW,338,0.7,1.1,77,0.00,,,0.00,WUHU216HW,2013-04-26 05:32:00,
2013-04-25 22:37:00,51.7,45.0,30.02,NNW,338,1.6,2.7,78,0.00,,,0.00,WUHU216HW,2013-04-26 05:37:00,
2013-04-25 22:42:00,51.5,44.8,30.02,North,0,1.6,2.7,78,0.00,,,0.00,WUHU216HW,2013-04-26 05:42:00,
2013-04-25 22:47:00,51.5,44.6,30.02,South,180,0.9,2.5,77,0.00,,,0.00,WUHU216HW,2013-04-26 05:47:00,
2013-04-25 22:52:00,51.7,44.7,30.03,South,180,0.0,2.2,77,0.00,,,0.00,WUHU216HW,2013-04-26 05:52:00,
2013-04-25 22:57:00,51.8,44.6,30.02,SSW,203,1.3,1.8,76,0.00,,,0.00,WUHU216HW,2013-04-26 05:57:00,
2013-04-25 23:02:00,52.0,44.7,30.02,SSW,203,1.1,1.8,76,0.00,,,0.00,WUHU216HW,2013-04-26 06:02:00,
2013-04-25 23:07:00,52.2,44.6,30.02,SSW,203,0.9,1.8,75,0.00,,,0.00,WUHU216HW,2013-04-26 06:07:00,
2013-04-25 23:12:00,52.2,44.6,30.02,SSW,203,3.1,3.1,75,0.00,,,0.00,WUHU216HW,2013-04-26 06:12:00,
2013-04-25 23:17:00,52.0,44.7,30.02,SSW,203,7.6,7.6,76,0.00,,,0.00,WUHU216HW,2013-04-26 06:17:00,
2013-04-25 23:22:00,51.7,44.7,30.02,SW,225,3.4,7.6,77,0.00,,,0.00,WUHU216HW,2013-04-26 06:22:00,
2013-04-25 23:27:00,51.5,44.2,30.02,South,180,1.8,7.6,76,0.00,,,0.00,WUHU216HW,2013-04-26 06:27:00,
2013-04-25 23:32:00,51.5,44.2,30.03,SW,225,3.8,4.7,76,0.00,,,0.00,WUHU216HW,2013-04-26 06:32:00,
2013-04-25 23:37:00,51.5,44.2,30.03,SSW,203,5.6,5.6,76,0.00,,,0.00,WUHU216HW,2013-04-26 06:37:00,
2013-04-25 23:42:00,51.5,44.8,30.03,SSW,203,6.9,6.9,78,0.00,,,0.00,WUHU216HW,2013-04-26 06:42:00,
2013-04-25 23:47:00,51.1,44.2,30.03,SSW,203,4.0,6.9,77,0.00,,,0.00,WUHU216HW,2013-04-26 06:47:00,
2013-04-25 23:52:00,51.1,44.2,30.02,SW,225,3.6,6.9,77,0.00,,,0.00,WUHU216HW,2013-04-26 06:52:00,
2013-04-25 23:57:00,51.1,44.5,30.03,SSW,203,7.2,7.2,78,0.00,,,0.00,WUHU216HW,2013-04-26 06:57:00,